createdAt,value
2023-04-28T00:02:19.008Z,5.50
2023-04-28T00:04:47.864Z,7.80
2023-04-28T00:07:16.270Z,8.90
2023-04-28T00:09:43.417Z,9.60
2023-04-28T00:12:10.218Z,6.77
2023-04-28T00:14:37.258Z,8.37
2023-04-28T00:17:04.611Z,9.17
2023-04-28T00:19:31.913Z,9.00
2023-04-28T00:21:58.835Z,7.03
2023-04-28T00:24:27.034Z,5.53
2023-04-28T00:26:54.404Z,11.57
2023-04-28T00:29:21.169Z,8.53
2023-04-28T00:31:48.413Z,7.27
2023-04-28T00:34:15.574Z,6.47
2023-04-28T00:36:42.844Z,14.33
2023-04-28T00:39:10.088Z,5.77
2023-04-28T00:41:38.555Z,13.57
2023-04-28T00:44:05.390Z,4.90
2023-04-28T00:46:34.257Z,13.27
2023-04-28T00:49:01.588Z,5.57
2023-04-28T00:51:29.570Z,6.87
2023-04-28T00:53:57.109Z,6.90
2023-04-28T00:56:24.488Z,6.40
2023-04-28T00:58:52.941Z,6.07
2023-04-28T01:01:20.442Z,11.77
2023-04-28T01:03:48.051Z,6.40
2023-04-28T01:06:16.637Z,13.43
2023-04-28T01:08:43.947Z,7.77
2023-04-28T01:11:14.521Z,7.27
2023-04-28T01:13:41.471Z,6.53
2023-04-28T01:16:10.065Z,9.30
2023-04-28T01:18:37.287Z,7.40
2023-04-28T01:21:04.569Z,8.37
2023-04-28T01:23:31.722Z,9.23
2023-04-28T01:26:00.000Z,8.07
2023-04-28T01:28:26.797Z,8.33
2023-04-28T01:30:53.949Z,8.80
2023-04-28T01:33:20.725Z,8.07
2023-04-28T01:35:47.860Z,8.63
2023-04-28T01:38:14.739Z,7.30
2023-04-28T01:40:41.903Z,9.57
2023-04-28T01:43:10.082Z,9.10
2023-04-28T01:45:36.921Z,7.93
2023-04-28T01:48:04.336Z,6.60
2023-04-28T01:50:31.279Z,5.60
2023-04-28T01:52:58.500Z,10.17
2023-04-28T01:55:25.882Z,8.93
2023-04-28T01:57:53.106Z,7.23
2023-04-28T02:00:21.512Z,10.87
2023-04-28T02:02:48.787Z,12.63
2023-04-28T02:05:15.902Z,11.10
2023-04-28T02:07:43.046Z,5.53
2023-04-28T02:10:10.434Z,8.83
2023-04-28T02:12:37.560Z,5.83
2023-04-28T02:15:05.286Z,7.50
2023-04-28T02:17:33.872Z,9.57
2023-04-28T02:20:00.776Z,6.23
2023-04-28T02:22:27.988Z,8.57
2023-04-28T02:24:54.838Z,10.03
2023-04-28T02:27:22.109Z,6.97
2023-04-28T02:29:49.025Z,11.47
2023-04-28T02:32:16.302Z,5.97
2023-04-28T02:34:44.491Z,6.70
2023-04-28T02:37:11.918Z,8.27
2023-04-28T02:39:39.985Z,7.47
2023-04-28T02:42:07.142Z,5.60
2023-04-28T02:44:33.925Z,6.47
2023-04-28T02:47:02.325Z,6.63
2023-04-28T02:49:29.338Z,5.93
2023-04-28T02:51:57.777Z,6.17
2023-04-28T02:54:27.842Z,8.13
2023-04-28T02:56:55.536Z,6.73
2023-04-28T02:59:22.754Z,10.90
2023-04-28T03:01:50.004Z,7.23
2023-04-28T03:04:17.171Z,9.40
2023-04-28T03:06:44.615Z,8.03
2023-04-28T03:09:13.809Z,5.97
2023-04-28T03:11:41.600Z,9.90
2023-04-28T03:14:08.440Z,8.43
2023-04-28T03:16:35.649Z,6.40
2023-04-28T03:19:02.500Z,4.60
2023-04-28T03:21:29.828Z,9.20
2023-04-28T03:23:57.033Z,8.43
2023-04-28T03:26:25.754Z,6.97
2023-04-28T03:28:53.115Z,10.23
2023-04-28T03:31:20.548Z,8.90
2023-04-28T03:33:47.690Z,9.10
2023-04-28T03:36:15.388Z,6.43
2023-04-28T03:38:42.644Z,8.27
2023-04-28T03:41:09.571Z,6.33
2023-04-28T03:43:37.738Z,6.47
2023-04-28T03:46:05.243Z,6.00
2023-04-28T03:48:32.184Z,6.60
2023-04-28T03:50:59.426Z,9.40
2023-04-28T03:53:26.266Z,8.67
2023-04-28T03:55:53.498Z,9.27
2023-04-28T03:58:20.367Z,9.87
2023-04-28T04:00:48.895Z,15.67
2023-04-28T04:03:16.090Z,7.23
2023-04-28T04:05:43.490Z,14.20
2023-04-28T04:08:10.426Z,11.10
2023-04-28T04:10:37.620Z,7.00
2023-04-28T04:13:04.432Z,9.90
2023-04-28T04:15:31.780Z,6.90
2023-04-28T04:18:00.001Z,7.17
2023-04-28T04:20:27.146Z,13.00
2023-04-28T04:22:53.908Z,9.73
2023-04-28T04:25:23.172Z,7.77
2023-04-28T04:27:50.280Z,7.17
2023-04-28T04:30:17.468Z,9.93
2023-04-28T04:32:44.338Z,11.17
2023-04-28T04:35:12.899Z,11.30
2023-04-28T04:37:40.181Z,8.03
2023-04-28T04:40:08.745Z,11.20
2023-04-28T04:42:35.687Z,13.47
2023-04-28T04:45:02.872Z,8.97
2023-04-28T04:47:29.756Z,9.93
2023-04-28T04:49:57.137Z,7.73
2023-04-28T04:52:25.552Z,10.90
2023-04-28T04:54:52.885Z,11.33
2023-04-28T04:57:19.727Z,16.50
2023-04-28T04:59:46.963Z,11.03
2023-04-28T05:02:13.985Z,18.13
2023-04-28T05:04:41.460Z,11.77
2023-04-28T05:07:08.444Z,13.17
2023-04-28T05:09:37.102Z,13.57
2023-04-28T05:12:04.334Z,14.00
2023-04-28T05:14:31.456Z,13.00
2023-04-28T05:16:58.375Z,11.67
2023-04-28T05:19:25.734Z,12.90
2023-04-28T05:21:54.616Z,10.97
2023-04-28T05:24:23.622Z,14.53
2023-04-28T05:26:52.884Z,11.63
2023-04-28T05:29:20.232Z,17.03
2023-04-28T05:31:47.739Z,11.20
2023-04-28T05:34:15.125Z,14.73
2023-04-28T05:36:42.691Z,15.23
2023-04-28T05:39:09.509Z,11.80
2023-04-28T05:41:39.494Z,19.33
2023-04-28T05:44:07.613Z,11.07
2023-04-28T05:46:35.017Z,16.40
2023-04-28T05:49:01.960Z,15.83
2023-04-28T05:51:29.381Z,17.77
2023-04-28T05:53:56.656Z,15.93
2023-04-28T05:56:23.844Z,12.13
2023-04-28T05:58:51.347Z,19.53
2023-04-28T06:01:22.336Z,16.13
2023-04-28T06:03:49.704Z,15.90
2023-04-28T06:06:17.286Z,17.07
2023-04-28T06:08:44.527Z,14.43
2023-04-28T06:11:12.067Z,12.83
2023-04-28T06:13:38.890Z,12.53
2023-04-28T06:16:06.800Z,15.77
2023-04-28T06:18:35.419Z,15.57
2023-04-28T06:21:02.296Z,11.30
2023-04-28T06:23:29.159Z,18.23
2023-04-28T06:25:56.517Z,14.30
2023-04-28T06:28:23.278Z,14.07
2023-04-28T06:30:50.408Z,13.10
2023-04-28T06:33:17.296Z,12.67
2023-04-28T06:35:45.844Z,14.13
2023-04-28T06:38:12.589Z,14.07
2023-04-28T06:40:40.892Z,17.73
2023-04-28T06:43:07.681Z,17.90
2023-04-28T06:45:34.964Z,16.23
2023-04-28T06:48:02.279Z,13.27
2023-04-28T06:50:29.259Z,14.13
2023-04-28T06:52:58.756Z,18.23
2023-04-28T06:55:27.077Z,13.20
2023-04-28T06:57:54.048Z,15.23
2023-04-28T07:00:21.514Z,20.13
2023-04-28T07:02:48.567Z,15.70
2023-04-28T07:05:16.675Z,13.50
2023-04-28T07:07:43.687Z,13.43
2023-04-28T07:10:13.740Z,18.50
2023-04-28T07:12:40.990Z,16.73
2023-04-28T07:15:10.309Z,15.63
2023-04-28T07:17:37.521Z,25.00
2023-04-28T07:20:05.624Z,22.10
2023-04-28T07:22:32.391Z,15.33
2023-04-28T07:24:59.600Z,13.33
2023-04-28T07:27:27.887Z,15.50
2023-04-28T07:29:55.095Z,11.93
2023-04-28T07:32:22.705Z,15.03
2023-04-28T07:34:50.222Z,16.90
2023-04-28T07:37:17.114Z,15.70
2023-04-28T07:39:44.298Z,16.90
2023-04-28T07:42:11.275Z,20.03
2023-04-28T07:44:39.894Z,17.50
2023-04-28T07:47:06.799Z,11.17
2023-04-28T07:49:33.925Z,15.90
2023-04-28T07:52:00.748Z,16.53
2023-04-28T07:54:28.078Z,16.67
2023-04-28T07:56:57.921Z,21.40
2023-04-28T07:59:25.025Z,19.93
2023-04-28T08:01:53.184Z,15.93
2023-04-28T08:04:21.044Z,12.73
2023-04-28T08:06:48.182Z,15.10
2023-04-28T08:09:15.412Z,19.50
2023-04-28T08:11:42.236Z,14.47
2023-04-28T08:14:09.376Z,16.67
2023-04-28T08:16:38.421Z,17.47
2023-04-28T08:19:07.079Z,16.87
2023-04-28T08:21:34.241Z,14.70
2023-04-28T08:24:02.083Z,13.73
2023-04-28T08:26:29.224Z,13.37
2023-04-28T08:28:56.036Z,14.47
2023-04-28T08:31:23.849Z,16.97
2023-04-28T08:33:51.550Z,15.33
2023-04-28T08:36:19.688Z,14.77
2023-04-28T08:38:47.571Z,15.80
2023-04-28T08:41:16.619Z,17.60
2023-04-28T08:43:43.837Z,14.97
2023-04-28T08:46:11.357Z,12.90
2023-04-28T08:48:41.494Z,15.93
2023-04-28T08:51:08.956Z,15.03
2023-04-28T08:54:03.974Z,12.83
2023-04-28T08:56:31.758Z,13.33
2023-04-28T08:59:03.656Z,16.23
2023-04-28T09:01:30.693Z,17.33
2023-04-28T09:03:58.135Z,16.53
2023-04-28T09:06:25.209Z,17.83
2023-04-28T09:08:53.810Z,22.00
2023-04-28T09:11:21.021Z,13.30
2023-04-28T09:13:48.307Z,12.53
2023-04-28T09:16:15.202Z,19.40
2023-04-28T09:18:57.347Z,12.97
2023-04-28T09:21:24.175Z,12.27
2023-04-28T09:23:51.438Z,15.53
2023-04-28T09:26:19.595Z,16.20
2023-04-28T09:28:46.432Z,22.97
2023-04-28T09:31:24.140Z,15.63
2023-04-28T09:33:58.070Z,16.13
2023-04-28T09:36:27.396Z,19.57
2023-04-28T09:38:59.250Z,17.43
2023-04-28T09:41:38.251Z,13.93
2023-04-28T09:44:23.985Z,14.03
2023-04-28T09:46:50.843Z,11.70
2023-04-28T09:49:18.218Z,11.83
2023-04-28T09:51:45.055Z,13.63
2023-04-28T09:54:13.452Z,15.10
2023-04-28T09:56:44.082Z,14.77
2023-04-28T09:59:11.495Z,13.90
2023-04-28T10:01:40.603Z,14.53
2023-04-28T10:04:09.263Z,16.17
2023-04-28T10:06:36.855Z,16.30
2023-04-28T10:09:05.441Z,12.37
2023-04-28T10:11:33.922Z,16.33
2023-04-28T10:14:02.692Z,15.60
2023-04-28T10:16:32.659Z,14.40
2023-04-28T10:19:00.787Z,17.20
2023-04-28T10:21:29.914Z,17.97
2023-04-28T10:24:13.756Z,15.83
2023-04-28T10:27:04.462Z,18.07
2023-04-28T10:29:34.222Z,16.87
2023-04-28T10:32:17.936Z,14.33
2023-04-28T10:34:45.142Z,13.23
2023-04-28T10:37:14.987Z,20.13
2023-04-28T10:39:42.077Z,13.40
2023-04-28T10:42:42.924Z,15.37
2023-04-28T10:45:11.306Z,14.03
2023-04-28T10:48:06.744Z,16.83
2023-04-28T10:50:39.137Z,19.23
2023-04-28T10:53:06.327Z,14.20
2023-04-28T10:55:37.399Z,15.10
2023-04-28T10:58:33.186Z,17.97
2023-04-28T11:01:27.756Z,15.07
2023-04-28T11:04:05.289Z,15.10
2023-04-28T11:06:34.595Z,16.73
2023-04-28T11:09:02.976Z,18.60
2023-04-28T11:11:30.493Z,15.03
2023-04-28T11:14:31.904Z,15.40
2023-04-28T11:17:02.946Z,12.77
2023-04-28T11:19:31.053Z,18.97
2023-04-28T11:21:59.105Z,15.57
2023-04-28T11:24:29.164Z,13.30
2023-04-28T11:26:56.549Z,12.87
2023-04-28T11:29:31.774Z,13.67
2023-04-28T11:32:00.191Z,21.47
2023-04-28T11:34:27.713Z,17.57
2023-04-28T11:36:55.032Z,16.30
2023-04-28T11:39:28.629Z,15.83
2023-04-28T11:41:56.444Z,17.87
2023-04-28T11:44:25.151Z,11.90
2023-04-28T11:46:57.243Z,13.23
2023-04-28T11:49:27.206Z,10.47
2023-04-28T11:51:54.724Z,16.23
2023-04-28T11:54:23.473Z,13.17
2023-04-28T11:56:50.746Z,17.17
2023-04-28T11:59:18.374Z,17.07
2023-04-28T12:01:47.887Z,15.50
2023-04-28T12:04:26.556Z,16.50
2023-04-28T12:07:02.008Z,19.03
2023-04-28T12:09:29.892Z,38.17
2023-04-28T12:11:58.072Z,19.27
2023-04-28T12:14:25.823Z,17.10
2023-04-28T12:16:53.089Z,16.50
2023-04-28T12:19:20.717Z,13.80
2023-04-28T12:22:03.999Z,14.83
2023-04-28T12:24:32.434Z,20.53
2023-04-28T12:27:16.246Z,21.60
2023-04-28T12:29:46.556Z,15.00
2023-04-28T12:32:14.116Z,18.20
2023-04-28T12:34:42.481Z,17.00
2023-04-28T12:37:12.200Z,20.17
2023-04-28T12:39:42.457Z,15.17
2023-04-28T12:42:09.527Z,17.90
2023-04-28T12:44:37.786Z,19.37
2023-04-28T12:47:07.213Z,14.13
2023-04-28T12:49:35.377Z,21.10
2023-04-28T12:52:02.605Z,29.47
2023-04-28T12:54:31.248Z,20.17
2023-04-28T12:56:58.152Z,17.60
2023-04-28T12:59:25.472Z,20.83
2023-04-28T13:01:52.435Z,14.90
2023-04-28T13:04:19.980Z,15.67
2023-04-28T13:06:47.364Z,19.23
2023-04-28T13:09:15.801Z,21.80
2023-04-28T13:11:44.141Z,16.17
2023-04-28T13:14:11.474Z,22.17
2023-04-28T13:16:39.350Z,14.10
2023-04-28T13:19:11.024Z,16.00
2023-04-28T13:21:39.391Z,19.93
2023-04-28T13:24:07.140Z,19.23
2023-04-28T13:26:34.160Z,15.67
2023-04-28T13:29:04.045Z,14.03
2023-04-28T13:31:31.473Z,18.77
2023-04-28T13:34:01.053Z,21.30
2023-04-28T13:36:29.344Z,23.20
2023-04-28T13:38:56.730Z,14.57
2023-04-28T13:41:23.626Z,14.97
2023-04-28T13:43:50.732Z,14.80
2023-04-28T13:46:19.248Z,15.83
2023-04-28T13:48:46.534Z,14.90
2023-04-28T13:51:13.480Z,17.80
2023-04-28T13:53:40.767Z,18.43
2023-04-28T13:56:08.266Z,20.73
2023-04-28T13:58:35.877Z,16.97
2023-04-28T14:01:04.339Z,22.27
2023-04-28T14:03:33.031Z,21.03
2023-04-28T14:06:00.359Z,18.80
2023-04-28T14:08:28.012Z,14.50
2023-04-28T14:10:55.255Z,15.80
2023-04-28T14:13:22.322Z,20.60
2023-04-28T14:15:58.464Z,17.07
2023-04-28T14:18:26.331Z,15.47
2023-04-28T14:20:55.030Z,17.43
2023-04-28T14:23:22.530Z,18.80
2023-04-28T14:25:50.524Z,18.77
2023-04-28T14:28:17.410Z,16.60
2023-04-28T14:30:47.861Z,16.13
2023-04-28T14:33:15.204Z,13.40
2023-04-28T14:35:42.522Z,16.80
2023-04-28T14:38:10.858Z,15.00
2023-04-28T14:40:38.088Z,15.97
2023-04-28T14:43:04.864Z,13.33
2023-04-28T14:45:31.983Z,14.90
2023-04-28T14:47:59.060Z,14.13
2023-04-28T14:50:25.899Z,15.83
2023-04-28T14:52:52.662Z,16.77
2023-04-28T14:55:21.387Z,13.73
2023-04-28T14:57:48.303Z,14.73
2023-04-28T15:00:16.662Z,16.73
2023-04-28T15:02:43.576Z,14.00
2023-04-28T15:05:11.796Z,17.13
2023-04-28T15:07:38.675Z,21.13
2023-04-28T15:10:10.076Z,19.40
2023-04-28T15:12:43.564Z,19.17
2023-04-28T15:15:11.758Z,20.23
2023-04-28T15:17:38.845Z,15.23
2023-04-28T15:20:11.129Z,19.77
2023-04-28T15:22:42.290Z,16.67
2023-04-28T15:25:10.384Z,20.70
2023-04-28T15:27:38.692Z,19.20
2023-04-28T15:30:08.077Z,22.20
2023-04-28T15:32:35.047Z,21.37
2023-04-28T15:35:03.149Z,20.63
2023-04-28T15:37:43.013Z,17.40
2023-04-28T15:40:12.337Z,19.40
2023-04-28T15:42:42.620Z,17.07
2023-04-28T15:45:13.295Z,22.17
2023-04-28T15:47:40.614Z,25.20
2023-04-28T15:50:09.512Z,25.87
2023-04-28T15:52:38.423Z,18.80
2023-04-28T15:55:07.224Z,18.93
2023-04-28T15:57:34.092Z,20.17
2023-04-28T16:00:06.512Z,17.70
2023-04-28T16:02:33.728Z,21.37
2023-04-28T16:05:02.754Z,21.67
2023-04-28T16:07:31.501Z,19.17
2023-04-28T16:09:58.851Z,19.77
2023-04-28T16:12:25.786Z,27.27
2023-04-28T16:14:53.199Z,22.07
2023-04-28T16:17:22.882Z,21.90
2023-04-28T16:19:50.565Z,23.47
2023-04-28T16:22:17.350Z,20.63
2023-04-28T16:24:45.633Z,20.83
2023-04-28T16:27:12.785Z,23.07
2023-04-28T16:29:39.837Z,29.17
2023-04-28T16:32:06.712Z,21.33
2023-04-28T16:34:34.930Z,28.43
2023-04-28T16:37:02.620Z,26.73
2023-04-28T16:39:31.406Z,25.93
2023-04-28T16:42:00.823Z,24.73
2023-04-28T16:44:28.586Z,24.97
2023-04-28T16:46:55.970Z,24.83
2023-04-28T16:49:23.372Z,25.23
2023-04-28T16:51:58.763Z,22.50
2023-04-28T16:54:25.831Z,30.40
2023-04-28T16:56:52.686Z,28.57
2023-04-28T16:59:20.106Z,22.93
2023-04-28T17:01:47.005Z,26.57
2023-04-28T17:04:14.883Z,24.00
2023-04-28T17:06:41.879Z,27.93
2023-04-28T17:09:10.428Z,26.83
2023-04-28T17:11:40.269Z,29.33
2023-04-28T17:14:07.506Z,26.37
2023-04-28T17:16:34.736Z,26.03
2023-04-28T17:19:01.938Z,35.60
2023-04-28T17:21:29.524Z,26.70
2023-04-28T17:23:59.546Z,28.83
2023-04-28T17:26:30.512Z,26.87
2023-04-28T17:29:01.155Z,29.97
2023-04-28T17:31:29.048Z,27.83
2023-04-28T17:33:57.592Z,29.40
2023-04-28T17:36:27.003Z,34.83
2023-04-28T17:38:54.002Z,30.93
2023-04-28T17:41:21.549Z,32.77
2023-04-28T17:43:51.438Z,38.53
2023-04-28T17:46:19.001Z,34.90
2023-04-28T17:48:46.163Z,39.63
2023-04-28T17:51:13.319Z,45.03
2023-04-28T17:53:40.190Z,48.73
2023-04-28T17:56:08.478Z,42.20
2023-04-28T17:58:36.281Z,37.63
2023-04-28T18:01:06.001Z,42.93
2023-04-28T18:03:34.756Z,39.13
2023-04-28T18:06:02.622Z,43.57
2023-04-28T18:08:29.591Z,44.67
2023-04-28T18:10:58.320Z,42.70
2023-04-28T18:13:25.339Z,44.63
2023-04-28T18:15:52.964Z,43.30
2023-04-28T18:18:21.173Z,48.37
2023-04-28T18:20:48.551Z,50.47
2023-04-28T18:23:15.494Z,50.10
2023-04-28T18:25:44.042Z,43.30
2023-04-28T18:28:10.968Z,46.10
2023-04-28T18:30:38.139Z,46.80
2023-04-28T18:33:05.509Z,49.30
2023-04-28T18:35:34.289Z,49.43
2023-04-28T18:38:01.077Z,49.07
2023-04-28T18:40:32.621Z,50.77
2023-04-28T18:43:00.499Z,45.20
2023-04-28T18:45:31.338Z,50.27
2023-04-28T18:47:59.067Z,45.67
2023-04-28T18:50:26.731Z,47.40
2023-04-28T18:52:54.887Z,45.57
2023-04-28T18:55:22.225Z,43.00
2023-04-28T18:57:49.247Z,44.67
2023-04-28T19:00:16.387Z,41.53
2023-04-28T19:02:44.471Z,41.37
2023-04-28T19:05:12.179Z,45.03
2023-04-28T19:07:39.983Z,52.30
2023-04-28T19:10:09.288Z,50.57
2023-04-28T19:12:36.185Z,45.90
2023-04-28T19:15:03.029Z,43.70
2023-04-28T19:17:30.306Z,42.77
2023-04-28T19:19:57.853Z,47.53
2023-04-28T19:22:36.449Z,42.83
2023-04-28T19:25:04.761Z,40.30
2023-04-28T19:27:34.734Z,39.53
2023-04-28T19:30:02.305Z,39.30
2023-04-28T19:32:29.553Z,44.27
2023-04-28T19:34:56.653Z,43.70
2023-04-28T19:37:23.645Z,44.33
2023-04-28T19:39:51.402Z,38.43
2023-04-28T19:42:18.746Z,36.23
2023-04-28T19:44:48.798Z,42.03
2023-04-28T19:47:23.839Z,38.63
2023-04-28T19:49:51.882Z,38.77
2023-04-28T19:52:20.918Z,39.63
2023-04-28T19:54:48.638Z,38.37
2023-04-28T19:57:16.320Z,39.00
2023-04-28T19:59:43.527Z,39.70
2023-04-28T20:02:11.634Z,41.73
2023-04-28T20:04:40.063Z,40.23
2023-04-28T20:07:08.431Z,40.77
2023-04-28T20:09:35.917Z,43.17
2023-04-28T20:12:04.267Z,40.67
2023-04-28T20:14:31.761Z,42.63
2023-04-28T20:16:58.978Z,43.27
2023-04-28T20:19:27.613Z,47.03
2023-04-28T20:21:54.480Z,42.27
2023-04-28T20:24:21.909Z,40.57
2023-04-28T20:26:50.588Z,40.80
2023-04-28T20:29:18.203Z,44.87
2023-04-28T20:31:45.113Z,42.47
2023-04-28T20:34:13.327Z,42.87
2023-04-28T20:36:42.848Z,41.60
2023-04-28T20:39:11.308Z,43.40
2023-04-28T20:41:40.919Z,43.87
2023-04-28T20:44:08.764Z,43.33
2023-04-28T20:46:36.042Z,40.73
2023-04-28T20:49:04.617Z,42.87
2023-04-28T20:51:33.941Z,38.97
2023-04-28T20:54:04.235Z,45.57
2023-04-28T20:56:31.053Z,44.23
2023-04-28T20:58:58.225Z,43.43
2023-04-28T21:01:25.449Z,40.53
2023-04-28T21:03:52.860Z,49.80
2023-04-28T21:06:19.809Z,39.80
2023-04-28T21:08:47.007Z,40.10
2023-04-28T21:11:16.022Z,41.03
2023-04-28T21:13:43.659Z,44.07
2023-04-28T21:16:17.630Z,41.97
2023-04-28T21:18:47.309Z,40.27
2023-04-28T21:21:14.244Z,44.10
2023-04-28T21:23:41.500Z,41.37
2023-04-28T21:26:08.700Z,44.67
2023-04-28T21:28:37.113Z,39.70
2023-04-28T21:31:04.908Z,41.93
2023-04-28T21:33:32.586Z,41.20
2023-04-28T21:36:05.491Z,50.80
2023-04-28T21:38:33.290Z,45.23
2023-04-28T21:41:00.367Z,43.33
2023-04-28T21:43:27.170Z,49.23
2023-04-28T21:45:55.331Z,42.13
2023-04-28T21:48:22.761Z,48.30
2023-04-28T21:50:49.732Z,47.60
2023-04-28T21:53:17.037Z,43.80
2023-04-28T21:55:44.463Z,46.87
2023-04-28T21:58:12.159Z,45.50
2023-04-28T22:00:41.706Z,44.13
2023-04-28T22:03:10.745Z,49.57
2023-04-28T22:05:39.344Z,47.40
2023-04-28T22:08:06.563Z,49.00
2023-04-28T22:10:34.387Z,43.93
2023-04-28T22:13:01.755Z,39.47
2023-04-28T22:15:28.760Z,40.27
2023-04-28T22:17:55.948Z,37.53
2023-04-28T22:20:24.140Z,40.63
2023-04-28T22:22:51.420Z,40.67
2023-04-28T22:25:18.406Z,38.43
2023-04-28T22:27:45.916Z,33.47
2023-04-28T22:30:13.581Z,40.23
2023-04-28T22:32:44.852Z,28.97
2023-04-28T22:35:14.679Z,30.10
2023-04-28T22:37:43.825Z,27.97
2023-04-28T22:40:11.158Z,25.80
2023-04-28T22:42:39.282Z,28.83
2023-04-28T22:45:06.978Z,27.20
2023-04-28T22:47:34.898Z,28.43
2023-04-28T22:50:06.289Z,26.33
2023-04-28T22:52:33.539Z,24.63
2023-04-28T22:55:01.954Z,25.23
2023-04-28T22:57:29.216Z,26.43
2023-04-28T22:59:56.146Z,22.30
2023-04-28T23:02:23.432Z,23.40
2023-04-28T23:04:50.771Z,21.03
2023-04-28T23:07:18.037Z,29.40
2023-04-28T23:09:44.972Z,22.83
2023-04-28T23:12:13.483Z,22.33
2023-04-28T23:14:40.378Z,20.20
2023-04-28T23:17:07.597Z,20.17
2023-04-28T23:19:39.036Z,20.63
2023-04-28T23:22:07.516Z,22.63
2023-04-28T23:24:36.600Z,20.37
2023-04-28T23:27:04.006Z,21.53
2023-04-28T23:29:32.447Z,19.53
2023-04-28T23:31:59.450Z,21.50
2023-04-28T23:34:26.993Z,19.27
2023-04-28T23:36:54.081Z,19.47
2023-04-28T23:39:20.832Z,19.63
2023-04-28T23:41:47.993Z,21.13
2023-04-28T23:44:14.910Z,23.47
2023-04-28T23:46:43.587Z,19.30
2023-04-28T23:49:10.348Z,21.17
2023-04-28T23:51:37.206Z,20.60
2023-04-28T23:54:04.101Z,21.63
2023-04-28T23:56:32.106Z,19.03
2023-04-28T23:58:58.937Z,23.43
